Concord, Michigan
Current Conditions -  °F | °C
As of 7:56 AM on Tuesday 21 Oct 2014 (Local Time) from KJXN Reporting Station
Light Rain Light Rain  
Wind Chill: 45°   Ceiling: 600
Heat Index: 45°   Visibility: 4mi
Dew Point: 44°   Wind: 3mph
Humidity: 97%   Direction: 330°NNW
Pressure: 29.98"   Gusts: NA
Location:  42.18°N, 84.64°W
Report Text: KJXN 211156Z 33003KT 4SM -RA BR BKN006 OVC009 07/07 A2998 RMK AO2 RAB51 SLP157 P0000 60000 70011 T00720067 10089 20072 51019
Loading
Personal Weather Stations






























Interactive Weather Map
Tropical Storm Tracking
New forecast layout! Learn more

10-Day Weather Forecast

Advertisements
Track Severe Weather on mobile